createdAt,value
2024-03-02T00:01:15.239Z,22.90
2024-03-02T00:03:45.116Z,23.20
2024-03-02T00:06:15.012Z,22.07
2024-03-02T00:08:43.436Z,21.47
2024-03-02T00:11:13.011Z,21.53
2024-03-02T00:13:41.865Z,21.37
2024-03-02T00:16:10.547Z,22.07
2024-03-02T00:18:39.807Z,22.40
2024-03-02T00:21:10.804Z,23.23
2024-03-02T00:23:40.931Z,23.90
2024-03-02T00:26:09.874Z,22.17
2024-03-02T00:28:39.846Z,23.20
2024-03-02T00:31:09.830Z,24.60
2024-03-02T00:33:41.457Z,21.80
2024-03-02T00:36:10.397Z,22.57
2024-03-02T00:38:48.767Z,23.07
2024-03-02T00:41:25.077Z,22.23
2024-03-02T00:44:01.550Z,22.77
2024-03-02T00:46:32.423Z,22.83
2024-03-02T00:49:02.032Z,21.30
2024-03-02T00:51:32.042Z,22.93
2024-03-02T00:54:05.603Z,21.90
2024-03-02T00:56:36.164Z,22.17
2024-03-02T00:59:04.747Z,23.43
2024-03-02T01:01:33.249Z,19.90
2024-03-02T01:04:01.692Z,22.30
2024-03-02T01:06:30.072Z,21.23
2024-03-02T01:08:58.559Z,24.02
2024-03-02T01:11:28.799Z,23.33
2024-03-02T01:13:57.357Z,22.30
2024-03-02T01:16:26.091Z,22.60
2024-03-02T01:18:54.569Z,21.20
2024-03-02T01:21:23.052Z,22.70
2024-03-02T01:23:51.526Z,22.70
2024-03-02T01:26:19.820Z,21.50
2024-03-02T01:28:49.860Z,20.73
2024-03-02T01:31:18.221Z,21.23
2024-03-02T01:33:46.581Z,18.87
2024-03-02T01:36:15.066Z,19.80
2024-03-02T01:38:43.646Z,20.37
2024-03-02T01:41:12.883Z,20.00
2024-03-02T01:43:42.296Z,19.87
2024-03-02T01:46:12.573Z,20.80
2024-03-02T01:48:40.908Z,19.50
2024-03-02T01:51:09.393Z,18.90
2024-03-02T01:53:37.765Z,18.73
2024-03-02T01:56:06.630Z,20.93
2024-03-02T01:58:35.055Z,19.60
2024-03-02T02:01:03.433Z,18.33
2024-03-02T02:03:33.332Z,18.70
2024-03-02T02:06:01.859Z,18.93
2024-03-02T02:08:30.158Z,17.63
2024-03-02T02:10:58.614Z,17.43
2024-03-02T02:13:27.194Z,17.17
2024-03-02T02:15:55.754Z,18.10
2024-03-02T02:18:24.366Z,17.13
2024-03-02T02:20:54.209Z,17.40
2024-03-02T02:23:23.947Z,18.00
2024-03-02T02:25:52.304Z,18.00
2024-03-02T02:28:20.638Z,17.43
2024-03-02T02:30:49.020Z,18.07
2024-03-02T02:33:17.502Z,17.97
2024-03-02T02:35:45.977Z,17.07
2024-03-02T02:38:13.312Z,17.27
2024-03-02T02:40:43.325Z,17.83
2024-03-02T02:43:11.901Z,16.07
2024-03-02T02:45:40.251Z,18.17
2024-03-02T02:48:09.173Z,16.27
2024-03-02T02:50:37.650Z,15.93
2024-03-02T02:53:06.207Z,17.70
2024-03-02T02:55:34.535Z,14.40
2024-03-02T02:58:04.301Z,16.47
2024-03-02T03:00:32.780Z,16.43
2024-03-02T03:03:01.144Z,16.73
2024-03-02T03:05:29.494Z,20.87
2024-03-02T03:07:58.056Z,18.03
2024-03-02T03:10:28.180Z,16.57
2024-03-02T03:12:57.497Z,17.20
2024-03-02T03:15:27.728Z,17.07
2024-03-02T03:17:56.226Z,19.23
2024-03-02T03:20:26.048Z,18.27
2024-03-02T03:22:54.425Z,17.10
2024-03-02T03:25:22.879Z,15.43
2024-03-02T03:27:51.708Z,17.50
2024-03-02T03:30:20.154Z,17.30
2024-03-02T03:32:50.323Z,16.60
2024-03-02T03:35:19.764Z,16.97
2024-03-02T03:37:48.116Z,17.63
2024-03-02T03:40:16.651Z,18.03
2024-03-02T03:42:45.762Z,16.87
2024-03-02T03:45:14.329Z,14.13
2024-03-02T03:47:42.734Z,17.10
2024-03-02T03:50:13.610Z,17.10
2024-03-02T03:52:42.011Z,16.63
2024-03-02T03:55:11.350Z,17.00
2024-03-02T03:57:39.845Z,16.93
2024-03-02T04:00:11.455Z,18.60
2024-03-02T04:02:42.785Z,19.23
2024-03-02T04:05:12.992Z,18.60
2024-03-02T04:07:42.338Z,20.20
2024-03-02T04:10:11.737Z,19.83
2024-03-02T04:12:40.646Z,19.63
2024-03-02T04:15:09.769Z,20.93
2024-03-02T04:17:38.274Z,20.17
2024-03-02T04:20:07.688Z,18.30
2024-03-02T04:22:37.823Z,19.90
2024-03-02T04:25:08.642Z,19.23
2024-03-02T04:27:37.540Z,20.07
2024-03-02T04:30:08.005Z,20.40
2024-03-02T04:32:37.661Z,19.77
2024-03-02T04:35:06.898Z,19.33
2024-03-02T04:37:38.390Z,20.00
2024-03-02T04:40:10.243Z,19.00
2024-03-02T04:42:38.848Z,20.10
2024-03-02T04:45:08.310Z,19.77
2024-03-02T04:47:36.611Z,19.77
2024-03-02T04:50:05.370Z,19.10
2024-03-02T04:52:33.671Z,20.00
2024-03-02T04:55:20.859Z,19.97
2024-03-02T04:57:49.395Z,20.33
2024-03-02T05:00:18.776Z,17.67
2024-03-02T05:02:47.089Z,19.47
2024-03-02T05:05:16.421Z,18.00
2024-03-02T05:07:45.363Z,19.13
2024-03-02T05:10:15.753Z,20.20
2024-03-02T05:12:58.573Z,18.87
2024-03-02T05:15:27.681Z,18.30
2024-03-02T05:17:58.243Z,18.70
2024-03-02T05:20:26.658Z,17.70
2024-03-02T05:22:54.986Z,19.90
2024-03-02T05:25:24.964Z,19.27
2024-03-02T05:27:53.320Z,19.47
2024-03-02T05:30:22.058Z,20.07
2024-03-02T05:32:50.349Z,20.23
2024-03-02T05:35:18.961Z,18.90
2024-03-02T05:37:47.253Z,17.00
2024-03-02T05:40:16.609Z,19.20
2024-03-02T05:42:46.486Z,19.30
2024-03-02T05:45:18.314Z,17.80
2024-03-02T05:47:46.749Z,18.40
2024-03-02T05:50:15.324Z,18.13
2024-03-02T05:52:43.836Z,17.80
2024-03-02T05:55:12.121Z,16.03
2024-03-02T05:57:56.794Z,17.43
2024-03-02T06:00:26.729Z,16.93
2024-03-02T06:02:55.078Z,18.40
2024-03-02T06:05:23.518Z,18.53
2024-03-02T06:07:51.786Z,17.97
2024-03-02T06:10:20.150Z,19.03
2024-03-02T06:12:48.531Z,18.30
2024-03-02T06:15:17.018Z,17.73
2024-03-02T06:17:46.760Z,16.53
2024-03-02T06:20:15.376Z,16.83
2024-03-02T06:22:43.665Z,16.47
2024-03-02T06:25:12.128Z,17.43
2024-03-02T06:27:40.429Z,17.57
2024-03-02T06:30:09.609Z,17.60
2024-03-02T06:32:38.067Z,16.63
2024-03-02T06:35:11.148Z,17.50
2024-03-02T06:37:40.525Z,17.20
2024-03-02T06:40:09.989Z,17.53
2024-03-02T06:42:38.525Z,15.17
2024-03-02T06:45:07.816Z,17.73
2024-03-02T06:47:36.263Z,17.60
2024-03-02T06:50:04.792Z,18.73
2024-03-02T06:52:34.487Z,17.30
2024-03-02T06:55:02.905Z,18.33
2024-03-02T06:57:31.273Z,18.50
2024-03-02T07:00:00.250Z,18.40
2024-03-02T07:02:29.117Z,17.00
2024-03-02T07:04:57.508Z,18.10
2024-03-02T07:07:25.922Z,21.37
2024-03-02T07:09:55.812Z,22.43
2024-03-02T07:12:24.242Z,22.73
2024-03-02T07:15:26.118Z,18.90
2024-03-02T07:17:54.608Z,19.07
2024-03-02T07:20:23.009Z,21.50
2024-03-02T07:22:51.321Z,18.70
2024-03-02T07:27:54.148Z,19.10
2024-03-02T07:30:22.669Z,21.40
2024-03-02T07:32:52.994Z,20.10
2024-03-02T07:35:23.017Z,22.20
2024-03-02T07:37:51.627Z,21.50
2024-03-02T07:40:21.460Z,21.03
2024-03-02T07:42:49.891Z,23.23
2024-03-02T07:45:18.367Z,27.10
2024-03-02T07:47:46.975Z,23.37
2024-03-02T07:50:15.331Z,21.80
2024-03-02T07:52:43.639Z,21.43
2024-03-02T07:55:12.064Z,21.27
2024-03-02T07:57:42.519Z,20.77
2024-03-02T08:00:11.764Z,26.30
2024-03-02T08:02:43.545Z,22.57
2024-03-02T08:05:12.252Z,23.40
2024-03-02T08:07:40.638Z,23.03
2024-03-02T08:10:10.076Z,25.03
2024-03-02T08:12:38.423Z,22.00
2024-03-02T08:15:09.050Z,22.30
2024-03-02T08:17:38.421Z,20.73
2024-03-02T08:20:09.302Z,27.37
2024-03-02T08:22:37.687Z,26.20
2024-03-02T08:25:09.301Z,24.70
2024-03-02T08:27:38.074Z,22.93
2024-03-02T08:30:12.713Z,22.77
2024-03-02T08:32:48.697Z,22.40
2024-03-02T08:35:48.789Z,22.10
2024-03-02T08:38:17.280Z,22.37
2024-03-02T08:40:46.057Z,22.50
2024-03-02T08:43:14.584Z,22.17
2024-03-02T08:45:44.898Z,22.83
2024-03-02T08:48:13.424Z,22.93
2024-03-02T08:50:41.744Z,22.07
2024-03-02T08:53:10.070Z,26.47
2024-03-02T08:55:38.345Z,22.80
2024-03-02T08:58:07.145Z,22.93
2024-03-02T09:00:35.851Z,27.53
2024-03-02T09:03:06.282Z,21.20
2024-03-02T09:05:34.693Z,19.83
2024-03-02T09:08:04.714Z,19.40
2024-03-02T09:10:33.101Z,19.90
2024-03-02T09:13:01.875Z,19.47
2024-03-02T09:15:30.926Z,19.77
2024-03-02T09:17:59.976Z,19.90
2024-03-02T09:20:29.885Z,19.60
2024-03-02T09:22:58.393Z,18.20
2024-03-02T09:25:26.919Z,18.50
2024-03-02T09:27:55.332Z,17.17
2024-03-02T09:30:23.656Z,17.13
2024-03-02T09:32:52.017Z,20.63
2024-03-02T09:35:20.357Z,16.83
2024-03-02T09:37:50.287Z,16.13
2024-03-02T09:40:18.986Z,15.77
2024-03-02T09:42:53.131Z,16.17
2024-03-02T09:45:25.941Z,15.20
2024-03-02T09:47:54.284Z,13.97
2024-03-02T09:50:22.812Z,13.43
2024-03-02T09:52:52.755Z,11.70
2024-03-02T09:55:21.603Z,12.63
2024-03-02T09:57:51.012Z,12.20
2024-03-02T10:00:20.811Z,11.60
2024-03-02T10:02:50.346Z,11.17
2024-03-02T10:05:29.449Z,9.60
2024-03-02T10:08:05.027Z,10.40
2024-03-02T10:10:43.075Z,11.63
2024-03-02T10:13:12.820Z,10.40
2024-03-02T10:15:43.367Z,10.37
2024-03-02T10:18:13.202Z,10.97
2024-03-02T10:20:42.881Z,9.60
2024-03-02T10:23:17.732Z,10.30
2024-03-02T10:25:54.698Z,13.50
2024-03-02T10:28:29.116Z,10.27
2024-03-02T10:30:57.998Z,10.77
2024-03-02T10:33:27.267Z,9.53
2024-03-02T10:35:55.704Z,9.90
2024-03-02T10:38:25.421Z,10.60
2024-03-02T10:40:54.024Z,10.23
2024-03-02T10:43:23.398Z,10.70
2024-03-02T10:45:52.855Z,10.57
2024-03-02T10:48:22.833Z,11.53
2024-03-02T10:50:52.372Z,9.67
2024-03-02T10:53:20.957Z,10.80
2024-03-02T10:56:03.103Z,8.50
2024-03-02T10:58:35.438Z,9.37
2024-03-02T11:01:08.505Z,10.10
2024-03-02T11:03:39.567Z,9.40
2024-03-02T11:06:11.787Z,8.57
2024-03-02T11:08:42.529Z,9.50
2024-03-02T11:11:17.834Z,9.67
2024-03-02T11:13:52.541Z,9.53
2024-03-02T11:16:31.304Z,8.73
2024-03-02T11:19:00.229Z,9.23
2024-03-02T11:21:28.907Z,8.20
2024-03-02T11:23:57.463Z,8.73
2024-03-02T11:26:29.636Z,8.00
2024-03-02T11:28:59.671Z,9.40
2024-03-02T11:32:01.676Z,8.30
2024-03-02T11:34:34.193Z,10.23
2024-03-02T11:37:04.669Z,9.27
2024-03-02T11:39:34.169Z,9.20
2024-03-02T11:42:04.205Z,9.00
2024-03-02T11:44:36.606Z,8.27
2024-03-02T11:47:07.935Z,9.40
2024-03-02T11:49:41.092Z,8.53
2024-03-02T11:52:10.634Z,8.77
2024-03-02T11:54:40.769Z,9.90
2024-03-02T11:57:10.746Z,10.30
2024-03-02T11:59:39.704Z,8.90
2024-03-02T12:02:08.135Z,9.20
2024-03-02T12:04:37.501Z,9.07
2024-03-02T12:07:06.927Z,7.87
2024-03-02T12:09:35.730Z,7.70
2024-03-02T12:12:08.492Z,7.70
2024-03-02T12:14:40.331Z,8.40
2024-03-02T12:17:09.151Z,8.27
2024-03-02T12:19:37.632Z,9.43
2024-03-02T12:22:08.368Z,9.43
2024-03-02T12:24:38.626Z,7.93
2024-03-02T12:27:08.084Z,9.00
2024-03-02T12:29:37.869Z,8.27
2024-03-02T12:32:07.558Z,10.20
2024-03-02T12:34:36.222Z,9.10
2024-03-02T12:37:06.513Z,8.83
2024-03-02T12:39:35.110Z,8.40
2024-03-02T12:42:05.778Z,8.27
2024-03-02T12:44:34.479Z,8.33
2024-03-02T12:47:04.422Z,8.27
2024-03-02T12:49:33.575Z,8.63
2024-03-02T12:52:02.199Z,8.77
2024-03-02T12:54:30.662Z,8.60
2024-03-02T12:56:59.586Z,11.53
2024-03-02T12:59:28.852Z,47.97
2024-03-02T13:01:59.208Z,13.97
2024-03-02T13:04:30.343Z,11.10
2024-03-02T13:06:59.374Z,8.60
2024-03-02T13:09:28.878Z,9.40
2024-03-02T13:11:58.147Z,9.90
2024-03-02T13:14:27.532Z,9.97
2024-03-02T13:16:55.964Z,13.50
2024-03-02T13:19:24.432Z,9.93
2024-03-02T13:21:54.381Z,10.10
2024-03-02T13:24:22.774Z,13.07
2024-03-02T13:26:53.359Z,10.67
2024-03-02T13:29:21.887Z,9.47
2024-03-02T13:31:50.815Z,8.77
2024-03-02T13:34:19.471Z,9.67
2024-03-02T13:36:47.826Z,7.97
2024-03-02T13:39:17.648Z,8.77
2024-03-02T13:41:53.765Z,9.10
2024-03-02T13:44:22.969Z,9.03
2024-03-02T13:46:52.671Z,9.43
2024-03-02T13:49:21.159Z,9.90
2024-03-02T13:51:49.794Z,9.20
2024-03-02T13:54:20.461Z,8.77
2024-03-02T13:56:49.603Z,9.20
2024-03-02T13:59:17.966Z,9.07
2024-03-02T14:01:47.311Z,8.13
2024-03-02T14:04:15.852Z,7.70
2024-03-02T14:06:45.533Z,8.83
2024-03-02T14:09:14.236Z,7.90
2024-03-02T14:11:43.881Z,8.40
2024-03-02T14:14:12.282Z,9.50
2024-03-02T14:16:40.911Z,8.00
2024-03-02T14:19:10.639Z,8.60
2024-03-02T14:21:39.216Z,8.90
2024-03-02T14:24:08.223Z,8.57
2024-03-02T14:26:37.570Z,8.53
2024-03-02T14:29:08.475Z,7.87
2024-03-02T14:31:36.940Z,7.90
2024-03-02T14:34:05.555Z,7.57
2024-03-02T14:36:35.324Z,7.47
2024-03-02T14:39:05.325Z,7.80
2024-03-02T14:41:33.838Z,7.83
2024-03-02T14:44:02.143Z,7.50
2024-03-02T14:46:32.200Z,8.40
2024-03-02T14:49:01.009Z,7.47
2024-03-02T14:51:31.285Z,7.40
2024-03-02T14:53:59.696Z,6.97
2024-03-02T14:56:28.259Z,8.30
2024-03-02T14:58:56.588Z,8.10
2024-03-02T15:01:25.916Z,8.27
2024-03-02T15:03:56.275Z,8.33
2024-03-02T15:06:24.826Z,7.63
2024-03-02T15:08:55.458Z,7.13
2024-03-02T15:11:24.355Z,6.23
2024-03-02T15:13:52.741Z,6.60
2024-03-02T15:16:21.314Z,5.53
2024-03-02T15:18:49.669Z,6.30
2024-03-02T15:21:21.126Z,6.20
2024-03-02T15:23:50.759Z,7.80
2024-03-02T15:26:19.374Z,6.60
2024-03-02T15:28:47.769Z,6.30
2024-03-02T15:31:16.328Z,5.77
2024-03-02T15:33:45.053Z,6.20
2024-03-02T15:36:13.814Z,5.90
2024-03-02T15:38:44.034Z,7.60
2024-03-02T15:41:12.510Z,6.50
2024-03-02T15:43:43.462Z,5.43
2024-03-02T15:46:12.083Z,6.50
2024-03-02T15:48:40.645Z,6.77
2024-03-02T15:51:09.402Z,7.10
2024-03-02T15:53:39.266Z,6.27
2024-03-02T15:56:10.564Z,6.00
2024-03-02T15:58:39.782Z,5.53
2024-03-02T16:01:08.714Z,6.03
2024-03-02T16:03:37.161Z,5.00
2024-03-02T16:06:06.139Z,5.23
2024-03-02T16:08:34.714Z,5.10
2024-03-02T16:11:04.454Z,4.43
2024-03-02T16:13:34.591Z,4.50
2024-03-02T16:16:03.159Z,4.17
2024-03-02T16:18:32.025Z,4.67
2024-03-02T16:21:00.510Z,4.47
2024-03-02T16:23:28.779Z,4.97
2024-03-02T16:25:57.140Z,4.50
2024-03-02T16:28:25.470Z,5.20
2024-03-02T16:30:55.544Z,10.07
2024-03-02T16:33:26.143Z,7.20
2024-03-02T16:35:54.775Z,5.10
2024-03-02T16:38:23.706Z,5.00
2024-03-02T16:40:52.220Z,4.90
2024-03-02T16:43:21.246Z,5.00
2024-03-02T16:45:49.580Z,5.30
2024-03-02T16:48:19.830Z,5.93
2024-03-02T16:50:48.300Z,6.50
2024-03-02T16:53:18.483Z,7.00
2024-03-02T16:55:46.865Z,6.30
2024-03-02T16:58:15.793Z,6.40
2024-03-02T17:00:46.154Z,7.30
2024-03-02T17:03:14.551Z,7.10
2024-03-02T17:05:44.316Z,6.60
2024-03-02T17:08:12.632Z,7.40
2024-03-02T17:10:41.436Z,7.53
2024-03-02T17:13:09.938Z,7.40
2024-03-02T17:15:38.569Z,6.93
2024-03-02T17:18:07.368Z,7.90
2024-03-02T17:20:35.987Z,8.87
2024-03-02T17:23:06.185Z,7.10
2024-03-02T17:25:34.635Z,8.00
2024-03-02T17:28:21.179Z,8.83
2024-03-02T17:30:49.599Z,15.27
2024-03-02T17:33:18.221Z,10.40
2024-03-02T17:35:48.617Z,9.60
2024-03-02T17:38:18.665Z,8.53
2024-03-02T17:40:47.098Z,8.80
2024-03-02T17:43:15.564Z,9.13
2024-03-02T17:45:44.244Z,9.10
2024-03-02T17:48:13.261Z,8.33
2024-03-02T17:50:41.794Z,9.07
2024-03-02T17:53:10.105Z,9.10
2024-03-02T17:55:39.877Z,9.00
2024-03-02T17:58:08.358Z,8.20
2024-03-02T18:00:37.412Z,9.17
2024-03-02T18:03:06.615Z,8.60
2024-03-02T18:05:36.825Z,9.07
2024-03-02T18:08:07.039Z,8.87
2024-03-02T18:10:35.333Z,10.30
2024-03-02T18:13:05.456Z,10.50
2024-03-02T18:15:33.946Z,9.10
2024-03-02T18:18:02.694Z,8.40
2024-03-02T18:20:31.820Z,9.50
2024-03-02T18:23:00.758Z,8.93
2024-03-02T18:25:29.311Z,10.17
2024-03-02T18:27:57.780Z,9.47
2024-03-02T18:30:27.576Z,9.90
2024-03-02T18:32:55.942Z,9.70
2024-03-02T18:35:24.321Z,9.33
2024-03-02T18:37:52.659Z,9.90
2024-03-02T18:40:21.168Z,10.23
2024-03-02T18:42:49.882Z,9.00
2024-03-02T18:45:18.413Z,9.90
2024-03-02T18:47:48.522Z,9.63
2024-03-02T18:50:17.641Z,10.73
2024-03-02T18:52:47.745Z,9.10
2024-03-02T18:55:16.376Z,9.67
2024-03-02T18:57:44.883Z,8.93
2024-03-02T19:00:14.994Z,9.40
2024-03-02T19:02:43.446Z,8.70
2024-03-02T19:05:13.472Z,8.47
2024-03-02T19:07:42.845Z,9.40
2024-03-02T19:10:12.218Z,8.87
2024-03-02T19:12:42.573Z,9.37
2024-03-02T19:15:13.118Z,9.10
2024-03-02T19:17:41.622Z,9.37
2024-03-02T19:20:13.091Z,12.80
2024-03-02T19:22:41.610Z,9.90
2024-03-02T19:25:12.499Z,10.03
2024-03-02T19:27:41.216Z,9.37
2024-03-02T19:30:10.842Z,9.50
2024-03-02T19:32:39.522Z,8.90
2024-03-02T19:35:09.196Z,9.37
2024-03-02T19:37:41.184Z,8.40
2024-03-02T19:40:12.099Z,9.37
2024-03-02T19:42:40.517Z,8.40
2024-03-02T19:45:09.142Z,8.23
2024-03-02T19:47:37.512Z,8.77
2024-03-02T19:50:06.725Z,8.97
2024-03-02T19:52:35.304Z,10.00
2024-03-02T19:55:07.033Z,9.53
2024-03-02T19:57:36.982Z,10.10
2024-03-02T20:00:07.903Z,8.27
2024-03-02T20:02:36.345Z,8.50
2024-03-02T20:05:05.392Z,8.67
2024-03-02T20:07:34.593Z,8.40
2024-03-02T20:10:07.649Z,10.27
2024-03-02T20:12:36.330Z,8.70
2024-03-02T20:15:05.730Z,9.53
2024-03-02T20:17:34.109Z,9.33
2024-03-02T20:20:04.316Z,9.00
2024-03-02T20:22:33.294Z,8.67
2024-03-02T20:25:01.743Z,8.23
2024-03-02T20:27:31.791Z,9.20
2024-03-02T20:30:00.853Z,10.20
2024-03-02T20:32:29.307Z,17.53
2024-03-02T20:34:57.705Z,13.40
2024-03-02T20:37:26.114Z,10.40
2024-03-02T20:39:56.581Z,9.23
2024-03-02T20:42:26.890Z,8.60
2024-03-02T20:44:56.821Z,9.60
2024-03-02T20:47:25.814Z,8.70
2024-03-02T20:49:54.629Z,8.17
2024-03-02T20:52:23.005Z,8.00
2024-03-02T20:54:51.472Z,8.70
2024-03-02T20:57:20.215Z,8.67
2024-03-02T20:59:49.646Z,9.47
2024-03-02T21:02:19.615Z,9.90
2024-03-02T21:04:48.848Z,8.83
2024-03-02T21:07:19.503Z,9.10
2024-03-02T21:09:47.923Z,9.17
2024-03-02T21:12:16.310Z,10.73
2024-03-02T21:14:44.657Z,10.17
2024-03-02T21:17:13.620Z,9.20
2024-03-02T21:19:43.918Z,11.40
2024-03-02T21:22:12.288Z,12.10
2024-03-02T21:24:42.961Z,11.53
2024-03-02T21:27:12.895Z,12.03
2024-03-02T21:29:41.629Z,10.80
2024-03-02T21:32:11.159Z,11.13
2024-03-02T21:34:39.558Z,11.60
2024-03-02T21:37:10.322Z,11.20
2024-03-02T21:39:43.255Z,11.00
2024-03-02T21:42:15.752Z,11.50
2024-03-02T21:44:44.037Z,12.40
2024-03-02T21:47:12.511Z,12.50
2024-03-02T21:49:40.939Z,12.00
2024-03-02T21:52:11.351Z,12.40
2024-03-02T21:54:40.077Z,11.80
2024-03-02T21:57:12.001Z,13.40
2024-03-02T21:59:40.661Z,13.60
2024-03-02T22:02:09.137Z,13.80
2024-03-02T22:04:37.786Z,13.47
2024-03-02T22:07:06.406Z,13.27
2024-03-02T22:09:36.486Z,14.20
2024-03-02T22:12:05.487Z,14.20
2024-03-02T22:14:34.014Z,14.00
2024-03-02T22:17:02.366Z,15.10
2024-03-02T22:19:30.782Z,15.07
2024-03-02T22:21:59.318Z,15.67
2024-03-02T22:24:27.804Z,14.80
2024-03-02T22:26:57.850Z,16.00
2024-03-02T22:29:26.151Z,17.00
2024-03-02T22:31:54.534Z,15.67
2024-03-02T22:34:23.632Z,16.30
2024-03-02T22:36:52.071Z,16.80
2024-03-02T22:39:20.609Z,16.70
2024-03-02T22:41:51.939Z,18.77
2024-03-02T22:44:21.862Z,18.00
2024-03-02T22:46:50.411Z,17.90
2024-03-02T22:49:18.907Z,18.53
2024-03-02T22:51:47.534Z,17.93
2024-03-02T22:54:15.879Z,19.60
2024-03-02T22:56:45.716Z,18.73
2024-03-02T22:59:15.354Z,20.50
2024-03-02T23:01:45.602Z,20.20
2024-03-02T23:04:14.349Z,19.83
2024-03-02T23:06:42.845Z,19.70
2024-03-02T23:09:12.779Z,20.70
2024-03-02T23:11:41.153Z,20.87
2024-03-02T23:14:09.426Z,23.00
2024-03-02T23:16:40.671Z,21.47
2024-03-02T23:19:10.756Z,23.00
2024-03-02T23:21:39.165Z,22.87
2024-03-02T23:24:07.491Z,22.70
2024-03-02T23:26:35.844Z,22.20
2024-03-02T23:29:04.515Z,22.40
2024-03-02T23:31:32.962Z,24.60
2024-03-02T23:34:05.226Z,22.80
2024-03-02T23:36:35.380Z,22.83
2024-03-02T23:39:05.942Z,24.80
2024-03-02T23:41:35.225Z,23.87
2024-03-02T23:44:03.635Z,23.70
2024-03-02T23:46:32.651Z,24.50
2024-03-02T23:49:01.094Z,25.33
2024-03-02T23:51:30.369Z,24.80
2024-03-02T23:54:00.338Z,24.27
2024-03-02T23:56:28.779Z,24.07
2024-03-02T23:58:58.256Z,24.17
